Dades meteomassalio
Diari Summary for Setembre 28, 2017 Units:  Metric    English   Both
« Previous Day
Next Day »
Diari Semanal Mensual Anual Personalitzat
  Maxima: Minima: Mijana:
Temperatura: 27.2 °C 9.4 °C 17.2 °C
Rosada: 16.7 °C 8.1 °C 12.1 °C
Humitat: 92 % 48 % 74 %
Velocitat del vent: 25.9 km/h 0.0 km/h 5.3 km/h
Racha vent: 25.9 km/h - -
Vent:- - SSE
Pressio: 1026.6 hPa 1023.2 hPa -
Pluja: 0.0 mm    
Historical Graphs
 
 
Tabular Data for Setembre 28, 2017
Time Temperature Dew Point Pressure Wind Wind Speed Wind Gust Humidity Rainfall Rate (Hourly) solar Conditions
00:02 15.6 °C 11.7 °C 1023.9 hPa Calm     78 % 0.0 mm 0.0 W/m2 CLR
00:07 15.0 °C 11.4 °C 1023.9 hPa Calm     79 % 0.0 mm 0.0 W/m2 CLR
00:12 15.0 °C 11.4 °C 1024.3 hPa Calm     79 % 0.0 mm 0.0 W/m2 CLR
00:17 15.0 °C 11.4 °C 1024.3 hPa Calm     79 % 0.0 mm 0.0 W/m2 CLR
00:22 15.0 °C 11.2 °C 1023.9 hPa Calm     78 % 0.0 mm 0.0 W/m2 CLR
00:27 14.4 °C 10.7 °C 1023.9 hPa Calm     78 % 0.0 mm 0.0 W/m2 CLR
00:32 14.4 °C 10.8 °C 1024.3 hPa Calm     79 % 0.0 mm 0.0 W/m2 CLR
00:37 13.9 °C 10.7 °C 1024.3 hPa Calm     81 % 0.0 mm 0.0 W/m2 CLR
00:42 13.9 °C 10.7 °C 1024.3 hPa Calm     81 % 0.0 mm 0.0 W/m2 CLR
00:47 13.9 °C 10.5 °C 1024.3 hPa Calm     80 % 0.0 mm 0.0 W/m2 CLR
00:52 13.3 °C 9.9 °C 1024.3 hPa Calm     80 % 0.0 mm 0.0 W/m2 CLR
00:57 13.3 °C 10.2 °C 1024.3 hPa Calm     81 % 0.0 mm 0.0 W/m2 CLR
01:02 13.3 °C 10.2 °C 1024.3 hPa Calm     81 % 0.0 mm 0.0 W/m2 CLR
01:07 13.3 °C 10.2 °C 1024.3 hPa Calm     81 % 0.0 mm 0.0 W/m2 CLR
01:12 13.3 °C 10.3 °C 1024.3 hPa Calm     82 % 0.0 mm 0.0 W/m2 CLR
01:17 13.3 °C 10.3 °C 1024.3 hPa Calm     82 % 0.0 mm 0.0 W/m2 CLR
01:22 13.3 °C 10.5 °C 1024.3 hPa Calm     83 % 0.0 mm 0.0 W/m2 CLR
01:27 12.8 °C 10.2 °C 1024.3 hPa Calm     84 % 0.0 mm 0.0 W/m2 CLR
01:32 12.8 °C 10.2 °C 1024.3 hPa Calm     84 % 0.0 mm 0.0 W/m2 CLR
01:37 12.8 °C 10.2 °C 1024.3 hPa Calm     84 % 0.0 mm 0.0 W/m2 CLR
01:42 12.8 °C 10.2 °C 1024.3 hPa Calm     84 % 0.0 mm 0.0 W/m2 CLR
01:47 12.2 °C 9.8 °C 1024.3 hPa Calm     85 % 0.0 mm 0.0 W/m2 CLR
01:52 12.2 °C 9.9 °C 1024.3 hPa Calm     86 % 0.0 mm 0.0 W/m2 CLR
01:57 12.2 °C 9.9 °C 1024.3 hPa Calm     86 % 0.0 mm 0.0 W/m2 CLR
02:02 12.2 °C 9.8 °C 1024.3 hPa Calm     85 % 0.0 mm 0.0 W/m2 CLR
02:07 12.2 °C 9.8 °C 1024.3 hPa Calm     85 % 0.0 mm 0.0 W/m2 CLR
02:12 12.2 °C 9.8 °C 1024.6 hPa Calm     85 % 0.0 mm 0.0 W/m2 CLR
02:17 11.7 °C 9.2 °C 1024.6 hPa Calm     85 % 0.0 mm 0.0 W/m2 CLR
02:22 11.7 °C 9.1 °C 1024.6 hPa Calm     84 % 0.0 mm 0.0 W/m2 CLR
02:27 11.7 °C 9.2 °C 1024.6 hPa Calm     85 % 0.0 mm 0.0 W/m2 CLR
02:32 11.7 °C 9.4 °C 1024.6 hPa Calm     86 % 0.0 mm 0.0 W/m2 CLR
02:37 11.7 °C 9.4 °C 1024.6 hPa Calm     86 % 0.0 mm 0.0 W/m2 CLR
02:42 11.7 °C 9.6 °C 1024.6 hPa Calm     87 % 0.0 mm 0.0 W/m2 CLR
02:47 12.2 °C 9.9 °C 1024.6 hPa Calm     86 % 0.0 mm 0.0 W/m2 CLR
02:52 12.2 °C 10.1 °C 1024.6 hPa Calm     87 % 0.0 mm 0.0 W/m2 CLR
02:57 12.2 °C 10.1 °C 1024.6 hPa Calm     87 % 0.0 mm 0.0 W/m2 CLR
03:02 11.7 °C 9.6 °C 1024.6 hPa Calm     87 % 0.0 mm 0.0 W/m2 CLR
03:07 11.7 °C 9.6 °C 1024.6 hPa Calm     87 % 0.0 mm 0.0 W/m2 CLR
03:12 11.7 °C 9.6 °C 1024.6 hPa Calm     87 % 0.0 mm 0.0 W/m2 CLR
03:17 11.7 °C 9.6 °C 1024.6 hPa Calm     87 % 0.0 mm 0.0 W/m2 CLR
03:22 11.1 °C 9.1 °C 1024.6 hPa Calm     87 % 0.0 mm 0.0 W/m2 CLR
03:27 11.1 °C 9.1 °C 1024.9 hPa Calm     87 % 0.0 mm 0.0 W/m2 CLR
03:32 11.1 °C 9.1 °C 1024.6 hPa Calm     87 % 0.0 mm 0.0 W/m2 CLR
03:37 11.1 °C 9.2 °C 1024.9 hPa Calm     88 % 0.0 mm 0.0 W/m2 CLR
03:42 11.1 °C 9.2 °C 1024.6 hPa Calm     88 % 0.0 mm 0.0 W/m2 CLR
03:47 11.1 °C 9.4 °C 1024.6 hPa Calm     89 % 0.0 mm 0.0 W/m2 CLR
03:52 11.1 °C 9.4 °C 1024.6 hPa Calm     89 % 0.0 mm 0.0 W/m2 CLR
03:57 11.1 °C 9.2 °C 1024.6 hPa Calm     88 % 0.0 mm 0.0 W/m2 CLR
04:02 11.1 °C 9.2 °C 1024.6 hPa Calm     88 % 0.0 mm 0.0 W/m2 CLR
04:07 11.1 °C 9.2 °C 1024.6 hPa Calm     88 % 0.0 mm 0.0 W/m2 CLR
04:12 10.6 °C 8.8 °C 1024.6 hPa Calm     89 % 0.0 mm 0.0 W/m2 CLR
04:17 10.6 °C 8.7 °C 1024.6 hPa Calm     88 % 0.0 mm 0.0 W/m2 CLR
04:22 10.6 °C 8.7 °C 1024.6 hPa Calm     88 % 0.0 mm 0.0 W/m2 CLR
04:27 10.6 °C 8.7 °C 1024.6 hPa Calm     88 % 0.0 mm 0.0 W/m2 CLR
04:32 10.6 °C 8.8 °C 1024.6 hPa Calm     89 % 0.0 mm 0.0 W/m2 CLR
04:37 10.6 °C 8.8 °C 1024.6 hPa Calm     89 % 0.0 mm 0.0 W/m2 CLR
04:42 10.6 °C 8.8 °C 1024.6 hPa Calm     89 % 0.0 mm 0.0 W/m2 CLR
04:47 10.6 °C 8.8 °C 1024.6 hPa Calm     89 % 0.0 mm 0.0 W/m2 CLR
04:52 10.6 °C 8.8 °C 1024.6 hPa Calm     89 % 0.0 mm 0.0 W/m2 CLR
04:57 10.6 °C 8.8 °C 1024.6 hPa Calm     89 % 0.0 mm 0.0 W/m2 CLR
05:02 10.6 °C 8.8 °C 1024.6 hPa Calm     89 % 0.0 mm 0.0 W/m2 CLR
05:07 10.6 °C 9.0 °C 1024.6 hPa Calm     90 % 0.0 mm 0.0 W/m2 CLR
05:12 10.6 °C 8.8 °C 1024.6 hPa Calm     89 % 0.0 mm 0.0 W/m2 CLR
05:17 10.6 °C 9.0 °C 1024.6 hPa Calm     90 % 0.0 mm 0.0 W/m2 CLR
05:23 10.0 °C 8.4 °C 1024.6 hPa Calm     90 % 0.0 mm 0.0 W/m2 CLR
05:28 10.0 °C 8.4 °C 1024.6 hPa Calm     90 % 0.0 mm 0.0 W/m2 CLR
05:33 10.6 °C 9.0 °C 1024.6 hPa Calm     90 % 0.0 mm 0.0 W/m2 CLR
05:38 10.0 °C 8.4 °C 1024.6 hPa Calm     90 % 0.0 mm 0.0 W/m2 CLR
05:43 10.0 °C 8.4 °C 1024.6 hPa Calm     90 % 0.0 mm 0.0 W/m2 CLR
05:48 10.0 °C 8.4 °C 1024.6 hPa Calm     90 % 0.0 mm 0.0 W/m2 CLR
05:53 10.0 °C 8.4 °C 1024.6 hPa Calm     90 % 0.0 mm 0.0 W/m2 CLR
05:58 10.0 °C 8.4 °C 1024.6 hPa Calm     90 % 0.0 mm 0.0 W/m2 CLR
06:03 10.0 °C 8.4 °C 1024.6 hPa Calm     90 % 0.0 mm 0.0 W/m2 CLR
06:08 10.0 °C 8.4 °C 1024.9 hPa Calm     90 % 0.0 mm 0.0 W/m2 CLR
06:13 10.0 °C 8.4 °C 1024.9 hPa Calm     90 % 0.0 mm 0.0 W/m2 CLR
06:18 10.0 °C 8.4 °C 1024.9 hPa Calm     90 % 0.0 mm 0.0 W/m2 CLR
06:23 10.0 °C 8.4 °C 1024.9 hPa Calm     90 % 0.0 mm 0.0 W/m2 CLR
06:28 10.0 °C 8.6 °C 1024.9 hPa Calm     91 % 0.0 mm 0.0 W/m2 CLR
06:33 10.0 °C 8.6 °C 1024.9 hPa Calm     91 % 0.0 mm 0.0 W/m2 CLR
06:38 10.0 °C 8.6 °C 1024.9 hPa Calm     91 % 0.0 mm 0.0 W/m2 CLR
06:43 10.0 °C 8.6 °C 1024.9 hPa Calm     91 % 0.0 mm 0.0 W/m2 CLR
06:48 10.0 °C 8.6 °C 1024.9 hPa Calm     91 % 0.0 mm 0.0 W/m2 CLR
06:49 10.0 °C 8.6 °C 1024.9 hPa Calm     91 % 0.0 mm 0.0 W/m2 CLR
06:54 10.0 °C 8.6 °C 1024.9 hPa Calm     91 % 0.0 mm 0.0 W/m2 CLR
06:59 10.0 °C 8.6 °C 1025.3 hPa Calm     91 % 0.0 mm 0.0 W/m2 CLR
07:04 10.0 °C 8.6 °C 1025.3 hPa Calm     91 % 0.0 mm 0.0 W/m2 CLR
07:09 10.0 °C 8.6 °C 1025.3 hPa Calm     91 % 0.0 mm 0.0 W/m2 CLR
07:14 9.4 °C 8.1 °C 1025.3 hPa Calm     91 % 0.0 mm 0.0 W/m2 CLR
07:19 9.4 °C 8.1 °C 1025.3 hPa Calm     91 % 0.0 mm 0.0 W/m2 CLR
07:24 10.0 °C 8.6 °C 1025.3 hPa Calm     91 % 0.0 mm 0.0 W/m2 CLR
07:29 10.0 °C 8.6 °C 1025.6 hPa Calm     91 % 0.0 mm 0.0 W/m2 CLR
07:34 9.4 °C 8.1 °C 1025.3 hPa Calm     91 % 0.0 mm 0.0 W/m2 CLR
07:39 9.4 °C 8.1 °C 1025.3 hPa Calm     91 % 0.0 mm 0.0 W/m2 CLR
07:49 9.4 °C 8.1 °C 1025.6 hPa Calm     91 % 0.0 mm 0.0 W/m2 OVC
07:54 9.4 °C 8.1 °C 1025.6 hPa Calm     91 % 0.0 mm 5.0 W/m2 OVC
07:59 9.4 °C 8.1 °C 1025.6 hPa Calm     91 % 0.0 mm 7.0 W/m2 BKN
08:04 9.4 °C 8.1 °C 1025.6 hPa Calm     91 % 0.0 mm 11.0 W/m2 BKN
08:09 9.4 °C 8.1 °C 1025.6 hPa Calm     91 % 0.0 mm 12.0 W/m2 BKN
08:14 9.4 °C 8.1 °C 1026.0 hPa Calm     91 % 0.0 mm 16.0 W/m2 BKN
08:19 9.4 °C 8.1 °C 1026.0 hPa Calm     91 % 0.0 mm 23.0 W/m2 BKN
08:24 9.4 °C 8.1 °C 1026.0 hPa Calm     91 % 0.0 mm 32.0 W/m2 BKN
08:29 9.4 °C 8.2 °C 1026.0 hPa Calm     92 % 0.0 mm 42.0 W/m2 BKN
08:34 9.4 °C 8.2 °C 1026.0 hPa Calm     92 % 0.0 mm 51.0 W/m2 SCT
08:39 10.0 °C 8.8 °C 1026.0 hPa Calm     92 % 0.0 mm 62.0 W/m2 SCT
08:45 10.6 °C 9.3 °C 1026.0 hPa Calm     92 % 0.0 mm 70.0 W/m2 FEW
08:50 10.6 °C 9.2 °C 1026.0 hPa Calm     91 % 0.0 mm 77.0 W/m2 FEW
08:55 10.6 °C 9.2 °C 1026.0 hPa Calm     91 % 0.0 mm 95.0 W/m2 FEW
09:00 11.1 °C 9.6 °C 1026.0 hPa Calm     90 % 0.0 mm 98.0 W/m2 CLR
09:05 11.1 °C 9.6 °C 1026.0 hPa Calm     90 % 0.0 mm 90.0 W/m2 CLR
09:10 11.7 °C 10.1 °C 1026.0 hPa Calm     90 % 0.0 mm 148.0 W/m2 CLR
09:15 11.7 °C 10.1 °C 1026.3 hPa Calm     90 % 0.0 mm 165.0 W/m2 CLR
09:20 12.2 °C 10.4 °C 1026.3 hPa Calm     89 % 0.0 mm 179.0 W/m2 CLR
09:25 12.2 °C 10.3 °C 1026.3 hPa Calm     88 % 0.0 mm 199.0 W/m2 CLR
09:30 12.2 °C 10.1 °C 1026.3 hPa Calm     87 % 0.0 mm 216.0 W/m2 CLR
09:35 12.8 °C 10.7 °C 1026.3 hPa Calm     87 % 0.0 mm 232.0 W/m2 CLR
09:40 13.3 °C 11.1 °C 1026.6 hPa Calm     86 % 0.0 mm 248.0 W/m2 CLR
09:45 13.9 °C 11.4 °C 1026.6 hPa Calm     85 % 0.0 mm 269.0 W/m2 CLR
09:50 14.4 °C 11.9 °C 1026.6 hPa Calm     85 % 0.0 mm 285.0 W/m2 CLR
09:55 15.0 °C 12.5 °C 1026.6 hPa Calm     85 % 0.0 mm 299.0 W/m2 CLR
10:00 15.0 °C 12.1 °C 1026.6 hPa Calm     83 % 0.0 mm 315.0 W/m2 CLR
10:05 15.0 °C 11.8 °C 1026.6 hPa Calm     81 % 0.0 mm 329.0 W/m2 CLR
10:10 15.6 °C 12.3 °C 1026.6 hPa Calm     81 % 0.0 mm 345.0 W/m2 CLR
10:15 16.1 °C 12.7 °C 1026.6 hPa Calm     80 % 0.0 mm 359.0 W/m2 CLR
10:20 16.7 °C 13.2 °C 1026.6 hPa Calm     80 % 0.0 mm 373.0 W/m2 CLR
10:25 17.2 °C 13.7 °C 1026.6 hPa Calm     80 % 0.0 mm 385.0 W/m2 CLR
10:30 17.2 °C 13.7 °C 1026.6 hPa Calm     80 % 0.0 mm 403.0 W/m2 CLR
10:35 17.8 °C 14.1 °C 1026.6 hPa Calm     79 % 0.0 mm 420.0 W/m2 CLR
10:37 17.8 °C 14.1 °C 1026.6 hPa Calm     79 % 0.0 mm 424.0 W/m2 CLR
10:42 17.8 °C 14.1 °C 1026.6 hPa Calm     79 % 0.0 mm 432.0 W/m2 CLR
10:47 18.3 °C 14.4 °C 1026.6 hPa Calm     78 % 0.0 mm 448.0 W/m2 CLR
10:52 18.3 °C 14.2 °C 1026.6 hPa Calm     77 % 0.0 mm 459.0 W/m2 CLR
10:57 18.3 °C 14.0 °C 1026.6 hPa Calm     76 % 0.0 mm 473.0 W/m2 CLR
11:02 18.9 °C 14.6 °C 1026.6 hPa Calm     76 % 0.0 mm 482.0 W/m2 CLR
11:07 18.9 °C 14.3 °C 1026.6 hPa Calm     75 % 0.0 mm 492.0 W/m2 CLR
11:12 19.4 °C 14.7 °C 1026.6 hPa Calm     74 % 0.0 mm 501.0 W/m2 CLR
11:17 19.4 °C 14.5 °C 1026.6 hPa Calm     73 % 0.0 mm 519.0 W/m2 CLR
11:22 20.0 °C 15.0 °C 1026.6 hPa Calm     73 % 0.0 mm 536.0 W/m2 CLR
11:27 20.0 °C 14.8 °C 1026.3 hPa Calm     72 % 0.0 mm 547.0 W/m2 CLR
11:32 20.0 °C 14.6 °C 1026.3 hPa Calm     71 % 0.0 mm 554.0 W/m2 CLR
11:37 20.6 °C 14.9 °C 1026.3 hPa Calm     70 % 0.0 mm 555.0 W/m2 CLR
11:42 20.6 °C 14.7 °C 1026.3 hPa North 7.4 km/h 7.4 km/h 69 % 0.0 mm 570.0 W/m2 CLR
11:47 21.1 °C 15.2 °C 1026.3 hPa NNW 13.0 km/h 13.0 km/h 69 % 0.0 mm 582.0 W/m2 CLR
11:52 21.1 °C 15.7 °C 1026.3 hPa Calm     71 % 0.0 mm 592.0 W/m2 CLR
11:57 21.7 °C 15.7 °C 1026.3 hPa WNW 5.6 km/h 5.6 km/h 69 % 0.0 mm 605.0 W/m2 CLR
12:02 21.7 °C 15.7 °C 1026.3 hPa NW 7.4 km/h 7.4 km/h 69 % 0.0 mm 603.0 W/m2 CLR
12:07 21.7 °C 15.7 °C 1026.3 hPa NNW 5.6 km/h 5.6 km/h 69 % 0.0 mm 622.0 W/m2 CLR
12:08 21.7 °C 15.7 °C 1026.3 hPa NNW 11.1 km/h 11.1 km/h 69 % 0.0 mm 626.0 W/m2 CLR
12:13 22.2 °C 16.3 °C 1026.3 hPa NNW 6.4 km/h 6.4 km/h 69 % 0.0 mm 628.0 W/m2 CLR
12:18 22.2 °C 15.8 °C 1026.3 hPa NNW 9.7 km/h 9.7 km/h 67 % 0.0 mm 640.0 W/m2 CLR
12:23 22.2 °C 15.6 °C 1026.0 hPa North 5.6 km/h 5.6 km/h 66 % 0.0 mm 645.0 W/m2 CLR
12:28 22.8 °C 16.1 °C 1026.0 hPa Calm     66 % 0.0 mm 626.0 W/m2 CLR
12:33 22.8 °C 16.1 °C 1026.0 hPa West 1.9 km/h 1.9 km/h 66 % 0.0 mm 643.0 W/m2 CLR
12:38 22.8 °C 15.8 °C 1026.0 hPa WNW 9.3 km/h 9.3 km/h 65 % 0.0 mm 649.0 W/m2 CLR
12:43 22.8 °C 15.8 °C 1026.0 hPa NW 5.6 km/h   65 % 0.0 mm 666.0 W/m2 CLR
12:48 23.3 °C 15.9 °C 1026.0 hPa WSW 11.1 km/h 11.1 km/h 63 % 0.0 mm 677.0 W/m2 CLR
12:58 23.9 °C 16.4 °C 1025.6 hPa NNW 13.0 km/h 13.0 km/h 63 % 0.0 mm 693.0 W/m2 CLR
13:03 23.9 °C 16.2 °C 1025.6 hPa NNW 12.9 km/h 12.9 km/h 62 % 0.0 mm 691.0 W/m2 CLR
13:08 23.9 °C 16.2 °C 1025.6 hPa NNE 7.4 km/h 7.4 km/h 62 % 0.0 mm 689.0 W/m2 CLR
13:13 24.4 °C 16.4 °C 1025.6 hPa Calm     61 % 0.0 mm 666.0 W/m2 CLR
13:18 24.4 °C 16.7 °C 1025.3 hPa Calm     62 % 0.0 mm 712.0 W/m2 CLR
13:23 24.4 °C 16.4 °C 1025.3 hPa NW 8.0 km/h 8.0 km/h 61 % 0.0 mm 657.0 W/m2 CLR
13:28 24.4 °C 16.4 °C 1025.3 hPa WNW 5.6 km/h 5.6 km/h 61 % 0.0 mm 719.0 W/m2 CLR
13:33 24.4 °C 15.9 °C 1025.3 hPa WNW 14.8 km/h 14.8 km/h 59 % 0.0 mm 715.0 W/m2 CLR
13:38 25.0 °C 16.4 °C 1025.3 hPa NNW 14.5 km/h 14.5 km/h 59 % 0.0 mm 721.0 W/m2 CLR
13:43 25.0 °C 16.4 °C 1024.9 hPa NNW 9.3 km/h 9.3 km/h 59 % 0.0 mm 719.0 W/m2 CLR
13:48 25.6 °C 16.4 °C 1024.9 hPa NNW 5.6 km/h 5.6 km/h 57 % 0.0 mm 722.0 W/m2 CLR
13:53 25.6 °C 16.1 °C 1024.9 hPa NW 12.9 km/h 12.9 km/h 56 % 0.0 mm 721.0 W/m2 CLR
13:58 25.6 °C 16.4 °C 1024.9 hPa NNW 13.0 km/h 13.0 km/h 57 % 0.0 mm 724.0 W/m2 CLR
14:03 25.6 °C 15.8 °C 1024.9 hPa NW 16.7 km/h 16.7 km/h 55 % 0.0 mm 726.0 W/m2 CLR
14:08 25.6 °C 15.8 °C 1024.6 hPa West 7.4 km/h   55 % 0.0 mm 707.0 W/m2 CLR
14:13 25.6 °C 15.8 °C 1024.6 hPa WNW 18.5 km/h 18.5 km/h 55 % 0.0 mm 726.0 W/m2 CLR
14:18 25.6 °C 15.8 °C 1024.6 hPa North 16.7 km/h 16.7 km/h 55 % 0.0 mm 717.0 W/m2 CLR
14:23 25.6 °C 15.6 °C 1024.6 hPa North 18.5 km/h 18.5 km/h 54 % 0.0 mm 724.0 W/m2 CLR
14:28 26.7 °C 16.0 °C 1024.6 hPa NNW 16.7 km/h 16.7 km/h 52 % 0.0 mm 710.0 W/m2 CLR
14:33 26.7 °C 15.7 °C 1024.3 hPa NE 14.8 km/h 14.8 km/h 51 % 0.0 mm 700.0 W/m2 CLR
14:38 27.2 °C 16.2 °C 1024.3 hPa NNW 8.0 km/h 8.0 km/h 51 % 0.0 mm 694.0 W/m2 CLR
14:44 27.2 °C 16.2 °C 1024.3 hPa NW 7.4 km/h   51 % 0.0 mm 714.0 W/m2 CLR
14:49 27.2 °C 16.2 °C 1024.3 hPa Calm     51 % 0.0 mm 606.0 W/m2 CLR
14:54 26.7 °C 15.7 °C 1024.3 hPa NNE 13.0 km/h 13.0 km/h 51 % 0.0 mm 661.0 W/m2 CLR
14:59 27.2 °C 15.9 °C 1024.3 hPa North 14.8 km/h 14.8 km/h 50 % 0.0 mm 631.0 W/m2 CLR
15:04 27.2 °C 15.9 °C 1023.9 hPa Calm     50 % 0.0 mm 592.0 W/m2 CLR
15:09 26.7 °C 15.4 °C 1023.9 hPa NNW 14.8 km/h 14.8 km/h 50 % 0.0 mm 649.0 W/m2 CLR
15:14 26.7 °C 15.1 °C 1023.9 hPa North 11.1 km/h 11.1 km/h 49 % 0.0 mm 631.0 W/m2 CLR
15:19 26.7 °C 14.7 °C 1023.9 hPa West 7.4 km/h 7.4 km/h 48 % 0.0 mm 543.0 W/m2 CLR
15:24 26.7 °C 14.7 °C 1023.9 hPa WNW 9.3 km/h 9.3 km/h 48 % 0.0 mm 592.0 W/m2 CLR
15:29 27.2 °C 15.3 °C 1023.9 hPa NE 4.8 km/h 4.8 km/h 48 % 0.0 mm 628.0 W/m2 CLR
15:34 27.2 °C 15.6 °C 1023.9 hPa Calm     49 % 0.0 mm 603.0 W/m2 CLR
15:39 26.7 °C 15.1 °C 1023.9 hPa North 18.5 km/h 18.5 km/h 49 % 0.0 mm 601.0 W/m2 CLR
15:44 26.7 °C 15.1 °C 1023.6 hPa NNE 18.5 km/h 18.5 km/h 49 % 0.0 mm 568.0 W/m2 CLR
15:49 26.7 °C 15.7 °C 1023.6 hPa North 20.4 km/h 20.4 km/h 51 % 0.0 mm 605.0 W/m2 CLR
15:54 26.7 °C 15.7 °C 1023.6 hPa NNE 18.5 km/h 18.5 km/h 51 % 0.0 mm 629.0 W/m2 CLR
15:59 26.7 °C 15.7 °C 1023.6 hPa NE 20.4 km/h 20.4 km/h 51 % 0.0 mm 578.0 W/m2 CLR
16:04 26.7 °C 15.4 °C 1023.6 hPa NE 18.5 km/h 18.5 km/h 50 % 0.0 mm 543.0 W/m2 CLR
16:09 26.7 °C 15.7 °C 1023.6 hPa North 18.5 km/h 18.5 km/h 51 % 0.0 mm 529.0 W/m2 CLR
16:14 26.7 °C 16.0 °C 1023.6 hPa North 24.1 km/h 24.1 km/h 52 % 0.0 mm 548.0 W/m2 CLR
16:19 26.7 °C 16.0 °C 1023.6 hPa North 19.3 km/h 19.3 km/h 52 % 0.0 mm 548.0 W/m2 CLR
16:24 26.7 °C 16.3 °C 1023.6 hPa NNE 18.5 km/h 18.5 km/h 53 % 0.0 mm 559.0 W/m2 CLR
16:29 26.7 °C 16.3 °C 1023.6 hPa North 24.1 km/h 24.1 km/h 53 % 0.0 mm 531.0 W/m2 CLR
16:34 26.7 °C 16.3 °C 1023.6 hPa North 18.5 km/h 18.5 km/h 53 % 0.0 mm 508.0 W/m2 CLR
16:39 26.7 °C 16.3 °C 1023.6 hPa NNE 5.6 km/h 5.6 km/h 53 % 0.0 mm 439.0 W/m2 CLR
16:44 26.7 °C 16.3 °C 1023.6 hPa NNE 25.9 km/h 25.9 km/h 53 % 0.0 mm 120.0 W/m2 CLR
16:49 26.7 °C 16.6 °C 1023.6 hPa NE 22.2 km/h 22.2 km/h 54 % 0.0 mm 471.0 W/m2 CLR
16:54 26.7 °C 16.6 °C 1023.6 hPa NE 18.5 km/h 18.5 km/h 54 % 0.0 mm 462.0 W/m2 CLR
16:59 26.7 °C 16.6 °C 1023.6 hPa NNW 18.5 km/h 18.5 km/h 54 % 0.0 mm 445.0 W/m2 CLR
17:04 26.7 °C 16.6 °C 1023.2 hPa NNE 14.8 km/h 14.8 km/h 54 % 0.0 mm 429.0 W/m2 CLR
17:09 26.7 °C 16.6 °C 1023.6 hPa NE 16.7 km/h 16.7 km/h 54 % 0.0 mm 417.0 W/m2 CLR
17:14 26.1 °C 15.8 °C 1023.6 hPa NNE 18.5 km/h 18.5 km/h 53 % 0.0 mm 403.0 W/m2 CLR
17:19 26.1 °C 16.1 °C 1023.6 hPa NNE 14.5 km/h 14.5 km/h 54 % 0.0 mm 387.0 W/m2 CLR
17:24 26.1 °C 16.4 °C 1023.6 hPa NE 16.7 km/h 16.7 km/h 55 % 0.0 mm 376.0 W/m2 CLR
17:29 26.1 °C 16.4 °C 1023.6 hPa NNE 12.9 km/h 12.9 km/h 55 % 0.0 mm 357.0 W/m2 CLR
17:34 25.6 °C 15.8 °C 1023.6 hPa North 20.4 km/h 20.4 km/h 55 % 0.0 mm 341.0 W/m2 CLR
17:39 25.6 °C 15.8 °C 1023.6 hPa NE 20.4 km/h 20.4 km/h 55 % 0.0 mm 325.0 W/m2 CLR
17:44 25.6 °C 16.1 °C 1023.6 hPa NNE 14.8 km/h 14.8 km/h 56 % 0.0 mm 309.0 W/m2 CLR
17:49 25.6 °C 16.1 °C 1023.6 hPa NNE 24.1 km/h 24.1 km/h 56 % 0.0 mm 297.0 W/m2 CLR
17:54 25.6 °C 16.1 °C 1023.6 hPa NE 18.5 km/h 18.5 km/h 56 % 0.0 mm 283.0 W/m2 CLR
17:59 25.0 °C 15.6 °C 1023.6 hPa NNE 20.4 km/h 20.4 km/h 56 % 0.0 mm 267.0 W/m2 CLR
18:04 25.0 °C 15.9 °C 1023.6 hPa NE 22.2 km/h 22.2 km/h 57 % 0.0 mm 248.0 W/m2 CLR
18:09 25.0 °C 15.9 °C 1023.6 hPa NNE 18.5 km/h 18.5 km/h 57 % 0.0 mm 237.0 W/m2 CLR
18:14 25.0 °C 15.9 °C 1023.6 hPa NE 18.5 km/h 18.5 km/h 57 % 0.0 mm 218.0 W/m2 CLR
18:19 25.0 °C 16.2 °C 1023.6 hPa NE 22.2 km/h 22.2 km/h 58 % 0.0 mm 197.0 W/m2 CLR
18:24 24.4 °C 15.7 °C 1023.6 hPa ENE 17.7 km/h 17.7 km/h 58 % 0.0 mm 179.0 W/m2 CLR
18:29 24.4 °C 15.7 °C 1023.6 hPa ENE 22.2 km/h 22.2 km/h 58 % 0.0 mm 163.0 W/m2 CLR
18:30 24.4 °C 15.7 °C 1023.6 hPa ENE 22.2 km/h 22.2 km/h 58 % 0.0 mm 163.0 W/m2 CLR
18:35 24.4 °C 15.7 °C 1023.6 hPa NE 18.5 km/h 18.5 km/h 58 % 0.0 mm 144.0 W/m2 CLR
18:40 24.4 °C 15.7 °C 1023.6 hPa ENE 18.5 km/h 18.5 km/h 58 % 0.0 mm 128.0 W/m2 CLR
18:45 23.9 °C 15.4 °C 1023.6 hPa NE 18.5 km/h 18.5 km/h 59 % 0.0 mm 113.0 W/m2 CLR
18:50 23.9 °C 15.4 °C 1023.6 hPa East 24.1 km/h 24.1 km/h 59 % 0.0 mm 98.0 W/m2 CLR
18:55 23.9 °C 15.4 °C 1023.6 hPa ENE 22.2 km/h 22.2 km/h 59 % 0.0 mm 83.0 W/m2 FEW
19:00 23.9 °C 15.4 °C 1023.6 hPa ENE 20.9 km/h 20.9 km/h 59 % 0.0 mm 63.0 W/m2 FEW
19:05 23.3 °C 15.1 °C 1023.6 hPa ENE 18.5 km/h 18.5 km/h 60 % 0.0 mm 56.0 W/m2 SCT
19:10 23.3 °C 15.1 °C 1023.9 hPa East 14.8 km/h 14.8 km/h 60 % 0.0 mm 46.0 W/m2 SCT
19:15 23.3 °C 15.1 °C 1023.9 hPa East 16.7 km/h 16.7 km/h 60 % 0.0 mm 33.0 W/m2 BKN
19:20 22.8 °C 14.9 °C 1023.9 hPa ENE 18.5 km/h 18.5 km/h 61 % 0.0 mm 25.0 W/m2 BKN
19:25 22.2 °C 14.6 °C 1023.9 hPa East 20.4 km/h 20.4 km/h 62 % 0.0 mm 18.0 W/m2 BKN
19:30 22.2 °C 14.6 °C 1023.9 hPa East 16.7 km/h 16.7 km/h 62 % 0.0 mm 14.0 W/m2 BKN
19:35 21.7 °C 14.1 °C 1023.9 hPa ENE 16.7 km/h 16.7 km/h 62 % 0.0 mm 11.0 W/m2 BKN
19:40 21.1 °C 13.8 °C 1023.9 hPa ENE 8.0 km/h 8.0 km/h 63 % 0.0 mm 7.0 W/m2 BKN
19:45 21.1 °C 13.8 °C 1023.9 hPa NE 7.4 km/h 7.4 km/h 63 % 0.0 mm 5.0 W/m2 OVC
19:50 21.1 °C 14.1 °C 1023.9 hPa ENE 14.8 km/h 14.8 km/h 64 % 0.0 mm 0.0 W/m2 OVC
19:55 20.6 °C 13.5 °C 1023.9 hPa East 11.3 km/h 11.3 km/h 64 % 0.0 mm 0.0 W/m2 OVC
20:00 20.6 °C 13.7 °C 1023.9 hPa East 7.4 km/h 7.4 km/h 65 % 0.0 mm 0.0 W/m2 CLR
20:05 20.0 °C 13.2 °C 1024.3 hPa NE 8.0 km/h 8.0 km/h 65 % 0.0 mm 0.0 W/m2 CLR
20:10 20.0 °C 13.2 °C 1024.3 hPa ENE 6.4 km/h 6.4 km/h 65 % 0.0 mm 0.0 W/m2 CLR
20:15 19.4 °C 12.9 °C 1024.3 hPa ENE 7.4 km/h 7.4 km/h 66 % 0.0 mm 0.0 W/m2 CLR
20:20 18.9 °C 12.4 °C 1024.3 hPa ENE 9.3 km/h 9.3 km/h 66 % 0.0 mm 0.0 W/m2 CLR
20:25 18.3 °C 11.9 °C 1024.3 hPa ENE 8.0 km/h 8.0 km/h 66 % 0.0 mm 0.0 W/m2 CLR
20:30 18.3 °C 12.1 °C 1024.3 hPa ENE 7.4 km/h 7.4 km/h 67 % 0.0 mm 0.0 W/m2 CLR
20:35 17.8 °C 11.6 °C 1024.3 hPa ENE 7.4 km/h 7.4 km/h 67 % 0.0 mm 0.0 W/m2 CLR
20:36 17.8 °C 11.6 °C 1024.3 hPa ENE 8.0 km/h 8.0 km/h 67 % 0.0 mm 0.0 W/m2 CLR
20:41 17.8 °C 11.6 °C 1024.3 hPa NE 5.6 km/h 5.6 km/h 67 % 0.0 mm 0.0 W/m2 CLR
20:46 17.8 °C 11.8 °C 1024.3 hPa ENE 11.1 km/h 11.1 km/h 68 % 0.0 mm 0.0 W/m2 CLR
20:51 17.2 °C 11.3 °C 1024.3 hPa ENE 11.1 km/h 11.1 km/h 68 % 0.0 mm 0.0 W/m2 CLR
20:56 17.2 °C 11.3 °C 1024.3 hPa ENE 9.3 km/h 9.3 km/h 68 % 0.0 mm 0.0 W/m2 CLR
21:01 17.2 °C 11.3 °C 1024.6 hPa NE 13.0 km/h 13.0 km/h 68 % 0.0 mm 0.0 W/m2 CLR
21:06 17.2 °C 11.5 °C 1024.6 hPa NE 7.4 km/h 7.4 km/h 69 % 0.0 mm 0.0 W/m2 CLR
21:11 17.2 °C 11.5 °C 1024.6 hPa ENE 7.4 km/h 7.4 km/h 69 % 0.0 mm 0.0 W/m2 CLR
21:16 16.7 °C 10.9 °C 1024.6 hPa ENE 7.4 km/h 7.4 km/h 69 % 0.0 mm 0.0 W/m2 CLR
21:21 16.7 °C 11.2 °C 1024.6 hPa Calm     70 % 0.0 mm 0.0 W/m2 CLR
21:26 16.7 °C 11.2 °C 1024.6 hPa ENE 6.4 km/h 6.4 km/h 70 % 0.0 mm 0.0 W/m2 CLR
21:31 16.7 °C 11.2 °C 1024.6 hPa Calm     70 % 0.0 mm 0.0 W/m2 CLR
21:36 16.1 °C 10.6 °C 1024.6 hPa Calm     70 % 0.0 mm 0.0 W/m2 CLR
21:41 16.1 °C 10.6 °C 1024.6 hPa Calm     70 % 0.0 mm 0.0 W/m2 CLR
21:46 16.1 °C 10.8 °C 1024.6 hPa Calm     71 % 0.0 mm 0.0 W/m2 CLR
21:51 15.6 °C 10.3 °C 1024.6 hPa Calm     71 % 0.0 mm 0.0 W/m2 CLR
21:56 15.6 °C 10.3 °C 1024.9 hPa Calm     71 % 0.0 mm 0.0 W/m2 CLR
22:01 15.0 °C 9.8 °C 1024.9 hPa Calm     71 % 0.0 mm 0.0 W/m2 CLR
22:06 15.0 °C 10.0 °C 1024.9 hPa Calm     72 % 0.0 mm 0.0 W/m2 CLR
22:11 15.0 °C 10.2 °C 1024.9 hPa Calm     73 % 0.0 mm 0.0 W/m2 CLR
22:16 15.0 °C 10.2 °C 1024.9 hPa Calm     73 % 0.0 mm 0.0 W/m2 CLR
22:21 14.4 °C 9.7 °C 1024.9 hPa Calm     73 % 0.0 mm 0.0 W/m2 CLR
22:26 14.4 °C 9.7 °C 1024.9 hPa Calm     73 % 0.0 mm 0.0 W/m2 CLR
22:31 14.4 °C 9.7 °C 1024.9 hPa Calm     73 % 0.0 mm 0.0 W/m2 CLR
22:32 14.4 °C 9.7 °C 1024.9 hPa Calm     73 % 0.0 mm 0.0 W/m2 CLR
22:37 14.4 °C 9.7 °C 1024.9 hPa Calm     73 % 0.0 mm 0.0 W/m2 CLR
22:42 14.4 °C 9.7 °C 1024.9 hPa Calm     73 % 0.0 mm 0.0 W/m2 CLR
22:47 13.9 °C 9.1 °C 1024.9 hPa Calm     73 % 0.0 mm 0.0 W/m2 CLR
22:52 13.9 °C 9.1 °C 1024.9 hPa Calm     73 % 0.0 mm 0.0 W/m2 CLR
22:57 13.9 °C 9.3 °C 1024.9 hPa Calm     74 % 0.0 mm 0.0 W/m2 CLR
23:02 13.9 °C 9.3 °C 1024.9 hPa Calm     74 % 0.0 mm 0.0 W/m2 CLR
23:07 13.9 °C 9.6 °C 1024.9 hPa Calm     75 % 0.0 mm 0.0 W/m2 CLR
23:12 13.3 °C 9.0 °C 1024.9 hPa Calm     75 % 0.0 mm 0.0 W/m2 CLR
23:17 13.3 °C 9.2 °C 1024.9 hPa Calm     76 % 0.0 mm 0.0 W/m2 CLR
23:22 13.3 °C 9.4 °C 1024.9 hPa Calm     77 % 0.0 mm 0.0 W/m2 CLR
23:27 13.3 °C 9.4 °C 1025.3 hPa Calm     77 % 0.0 mm 0.0 W/m2 CLR
23:32 13.3 °C 9.6 °C 1025.3 hPa Calm     78 % 0.0 mm 0.0 W/m2 CLR
23:37 13.3 °C 9.8 °C 1025.3 hPa Calm     79 % 0.0 mm 0.0 W/m2 CLR
23:42 13.3 °C 9.9 °C 1025.3 hPa Calm     80 % 0.0 mm 0.0 W/m2 CLR
23:47 13.3 °C 9.9 °C 1024.9 hPa Calm     80 % 0.0 mm 0.0 W/m2 CLR
23:52 13.3 °C 10.2 °C 1025.3 hPa Calm     81 % 0.0 mm 0.0 W/m2 CLR
23:57 12.8 °C 9.6 °C 1024.9 hPa Calm     81 % 0.0 mm 0.0 W/m2 CLR
Lo Temps de Massalio
Compliments of Weather Underground - 1.25 mb